Time;durP1;ratioP1;P1;durP2;ratioP2;P2;SDS_P1;SDS_P2;PMS_P1;PMS_P2;Temp;Humidity;BMP_temperature;BMP_pressure;BME280_temperature;BME280_humidity;BME280_pressure;Samples;Min_cycle;Max_cycle;Signal;HPM_P1;HPM_P2
2023/09/15 00:00:53;;;;;;;13.55;6.18;;;16.20;99.90;;;;;;5105620;28;20047;-64
2023/09/15 00:03:21;;;;;;;10.93;6.00;;;16.20;99.90;;;;;;5107480;28;20477;-64
2023/09/15 00:05:48;;;;;;;10.23;6.57;;;16.30;99.90;;;;;;5110243;27;20048;-65
2023/09/15 00:08:16;;;;;;;9.88;7.00;;;16.20;99.90;;;;;;5097706;28;20508;-61
2023/09/15 00:10:46;;;;;;;19.60;6.82;;;16.30;99.90;;;;;;5117867;27;20051;-63
2023/09/15 00:13:15;;;;;;;15.40;6.20;;;16.30;99.90;;;;;;5112565;27;20043;-64
2023/09/15 00:15:43;;;;;;;13.70;6.47;;;16.30;99.90;;;;;;5129963;27;20055;-62
2023/09/15 00:18:11;;;;;;;14.18;6.40;;;16.30;99.90;;;;;;5129465;27;20050;-62
2023/09/15 00:20:40;;;;;;;11.07;5.82;;;16.30;99.90;;;;;;5121426;27;20058;-63
2023/09/15 00:23:07;;;;;;;9.02;4.80;;;16.30;99.90;;;;;;5117729;28;20510;-63
2023/09/15 00:25:35;;;;;;;10.18;4.50;;;16.30;99.90;;;;;;5118191;27;20036;-62
2023/09/15 00:28:04;;;;;;;5.90;4.00;;;16.30;99.90;;;;;;5099710;27;20048;-62
2023/09/15 00:30:32;;;;;;;5.50;3.47;;;16.30;99.90;;;;;;5115448;28;20051;-64
2023/09/15 00:33:00;;;;;;;6.82;3.83;;;16.30;99.90;;;;;;5118526;27;20062;-62
2023/09/15 00:35:28;;;;;;;6.80;3.58;;;16.30;99.90;;;;;;5122601;27;20043;-63
2023/09/15 00:37:56;;;;;;;7.88;4.10;;;16.30;99.90;;;;;;5097189;28;20494;-63
2023/09/15 00:40:24;;;;;;;8.07;4.10;;;16.30;99.90;;;;;;5119624;27;20039;-63
2023/09/15 00:42:52;;;;;;;9.60;4.07;;;16.30;99.90;;;;;;5117730;27;20117;-63
2023/09/15 00:45:22;;;;;;;8.52;4.00;;;16.30;99.90;;;;;;5128606;27;20047;-62
2023/09/15 00:47:56;;;;;;;5.85;3.42;;;16.30;99.90;;;;;;5113938;28;20063;-63
2023/09/15 00:50:28;;;;;;;6.53;3.67;;;16.30;99.90;;;;;;5114215;28;20490;-63
2023/09/15 00:53:09;;;;;;;6.75;3.38;;;16.30;99.90;;;;;;5117421;27;20050;-63
2023/09/15 00:55:38;;;;;;;7.63;3.95;;;16.30;99.90;;;;;;5114795;27;20458;-63
2023/09/15 00:58:11;;;;;;;8.18;4.00;;;16.30;99.90;;;;;;5107265;27;20059;-63
2023/09/15 01:00:44;;;;;;;8.35;4.45;;;16.30;99.90;;;;;;5113701;28;20050;-63
2023/09/15 01:03:18;;;;;;;7.72;4.55;;;16.30;99.90;;;;;;5111502;27;20051;-63
2023/09/15 01:05:47;;;;;;;8.60;4.28;;;16.30;99.90;;;;;;5106801;28;20048;-62
2023/09/15 01:08:17;;;;;;;6.03;4.55;;;16.30;99.90;;;;;;5100040;27;20044;-64
2023/09/15 01:10:45;;;;;;;5.80;3.83;;;16.30;99.90;;;;;;5102155;27;20043;-63
2023/09/15 01:13:13;;;;;;;6.28;4.50;;;16.30;99.90;;;;;;5112916;27;20066;-63
2023/09/15 01:15:58;;;;;;;7.38;4.80;;;16.30;99.90;;;;;;5114415;27;20058;-63
2023/09/15 01:18:40;;;;;;;8.48;4.78;;;16.30;99.90;;;;;;5113358;28;20494;-63
2023/09/15 01:21:31;;;;;;;6.18;4.10;;;16.30;99.90;;;;;;5113734;28;20055;-63
2023/09/15 01:24:36;;;;;;;6.53;4.35;;;16.30;99.90;;;;;;5110496;27;20047;-63
2023/09/15 01:27:18;;;;;;;5.45;3.83;;;16.20;99.90;;;;;;5053009;28;20059;-63
2023/09/15 01:29:54;;;;;;;5.80;4.22;;;16.20;99.90;;;;;;5106039;27;20060;-63
2023/09/15 01:32:22;;;;;;;8.85;4.32;;;16.20;99.90;;;;;;5095578;27;20055;-63
2023/09/15 01:34:52;;;;;;;5.20;4.57;;;16.20;99.90;;;;;;5107460;28;20035;-63
2023/09/15 01:37:21;;;;;;;4.68;4.10;;;16.20;99.90;;;;;;5113922;28;20052;-63
2023/09/15 01:39:50;;;;;;;5.82;4.60;;;16.20;99.90;;;;;;5096665;28;20040;-63
2023/09/15 01:42:17;;;;;;;6.40;5.22;;;16.20;99.90;;;;;;5130519;27;20197;-62
2023/09/15 01:44:45;;;;;;;6.85;5.03;;;16.20;99.90;;;;;;5127633;27;20040;-62
2023/09/15 01:47:19;;;;;;;7.05;4.82;;;16.20;99.90;;;;;;5101615;28;20039;-63
2023/09/15 01:49:50;;;;;;;7.22;5.18;;;16.20;99.90;;;;;;5113119;28;20035;-63
2023/09/15 01:52:20;;;;;;;7.32;5.07;;;16.20;99.90;;;;;;5117264;27;20046;-63
2023/09/15 01:54:49;;;;;;;8.00;5.60;;;16.20;99.90;;;;;;5127713;27;20035;-63
2023/09/15 01:57:17;;;;;;;8.75;5.90;;;16.20;99.90;;;;;;5114266;28;20498;-62
2023/09/15 01:59:45;;;;;;;7.82;5.05;;;16.30;99.90;;;;;;5112497;28;20039;-63
2023/09/15 02:02:12;;;;;;;11.55;6.10;;;16.30;99.90;;;;;;5114224;28;20051;-64
2023/09/15 02:04:40;;;;;;;10.30;4.82;;;16.30;99.90;;;;;;5110603;28;20047;-63
2023/09/15 02:07:09;;;;;;;9.60;4.85;;;16.20;99.90;;;;;;5114089;28;20047;-63
2023/09/15 02:09:37;;;;;;;10.05;4.97;;;16.30;99.90;;;;;;5113931;28;20388;-63
2023/09/15 02:12:04;;;;;;;8.75;5.63;;;16.20;99.90;;;;;;5123122;27;20050;-63
2023/09/15 02:14:32;;;;;;;11.80;5.30;;;16.20;99.90;;;;;;5128429;27;20035;-63
2023/09/15 02:17:00;;;;;;;10.30;5.75;;;16.20;99.90;;;;;;5112934;28;20479;-61
2023/09/15 02:19:29;;;;;;;10.68;6.10;;;16.30;99.90;;;;;;5113822;28;20387;-62
2023/09/15 02:21:58;;;;;;;10.73;6.28;;;16.20;99.90;;;;;;5119095;27;20039;-62
2023/09/15 02:24:26;;;;;;;11.10;5.95;;;16.20;99.90;;;;;;5129094;27;20062;-60
2023/09/15 02:26:54;;;;;;;10.23;7.25;;;16.20;99.90;;;;;;5113927;28;20043;-62
2023/09/15 02:29:21;;;;;;;12.70;6.57;;;16.20;99.90;;;;;;5113685;28;20059;-62
2023/09/15 02:31:51;;;;;;;10.30;6.97;;;16.20;99.90;;;;;;5113597;28;20046;-62
2023/09/15 02:34:18;;;;;;;12.95;7.22;;;16.20;99.90;;;;;;5113172;28;20044;-61
2023/09/15 02:36:46;;;;;;;11.52;6.70;;;16.20;99.90;;;;;;5112234;28;20553;-63
2023/09/15 02:39:14;;;;;;;10.55;6.78;;;16.20;99.90;;;;;;5114035;28;20043;-63
2023/09/15 02:41:42;;;;;;;14.00;6.95;;;16.20;99.90;;;;;;5113758;27;20059;-63
2023/09/15 02:44:10;;;;;;;10.82;6.78;;;16.20;99.90;;;;;;5112306;28;20039;-63
2023/09/15 02:46:38;;;;;;;11.02;6.82;;;16.30;99.90;;;;;;5113101;28;20032;-63
2023/09/15 02:49:06;;;;;;;11.25;5.97;;;16.20;99.90;;;;;;5112020;28;20058;-63
2023/09/15 02:51:33;;;;;;;9.80;6.32;;;16.20;99.90;;;;;;5115074;27;20048;-63
2023/09/15 02:54:03;;;;;;;11.63;6.28;;;16.30;99.90;;;;;;5131121;27;20371;-62
2023/09/15 02:56:31;;;;;;;11.50;7.55;;;16.20;99.90;;;;;;5111312;28;20050;-63
2023/09/15 02:58:59;;;;;;;12.88;7.10;;;16.20;99.90;;;;;;5111865;28;20048;-62
2023/09/15 03:01:26;;;;;;;16.27;7.90;;;16.20;99.90;;;;;;5109682;28;20044;-63
2023/09/15 03:03:55;;;;;;;12.63;7.50;;;16.20;99.90;;;;;;5111810;28;20058;-62
2023/09/15 03:06:25;;;;;;;14.90;8.57;;;16.20;99.90;;;;;;5111569;28;20040;-63
2023/09/15 03:08:53;;;;;;;16.73;8.40;;;16.20;99.90;;;;;;5113021;28;20050;-62
2023/09/15 03:11:22;;;;;;;15.77;8.52;;;16.20;99.90;;;;;;5115953;27;20494;-63
2023/09/15 03:13:57;;;;;;;13.18;7.93;;;16.20;99.90;;;;;;5128673;27;20039;-63
2023/09/15 03:16:26;;;;;;;14.02;8.00;;;16.20;99.90;;;;;;5094088;28;20060;-63
2023/09/15 03:18:54;;;;;;;17.00;8.48;;;16.10;99.90;;;;;;5111716;28;20040;-63
2023/09/15 03:21:22;;;;;;;17.17;8.38;;;16.10;99.90;;;;;;5111113;28;20058;-63
2023/09/15 03:23:50;;;;;;;13.40;7.82;;;16.10;99.90;;;;;;5133317;27;20524;-63
2023/09/15 03:26:17;;;;;;;13.20;7.78;;;16.10;99.90;;;;;;5114596;27;20047;-63
2023/09/15 03:28:49;;;;;;;13.45;7.80;;;16.10;99.90;;;;;;5112879;27;20039;-63
2023/09/15 03:31:17;;;;;;;15.27;8.45;;;16.10;99.90;;;;;;5111431;28;20047;-63
2023/09/15 03:33:45;;;;;;;16.05;8.05;;;16.10;99.90;;;;;;5112578;28;20043;-62
2023/09/15 03:36:13;;;;;;;16.55;8.23;;;16.20;99.90;;;;;;5112118;28;20528;-63
2023/09/15 03:38:43;;;;;;;20.50;9.63;;;16.10;99.90;;;;;;5110988;28;20047;-63
2023/09/15 03:41:11;;;;;;;22.02;9.60;;;16.10;99.90;;;;;;5112266;27;20047;-63
2023/09/15 03:43:39;;;;;;;18.92;9.68;;;16.10;99.90;;;;;;5132429;27;20043;-63
2023/09/15 03:46:06;;;;;;;20.52;9.40;;;16.10;99.90;;;;;;5132900;27;20051;-64
2023/09/15 03:48:37;;;;;;;18.60;10.00;;;16.10;99.90;;;;;;5117059;27;20040;-63
2023/09/15 03:51:05;;;;;;;16.88;9.85;;;16.10;99.90;;;;;;5110918;28;20075;-63
2023/09/15 03:53:32;;;;;;;17.20;9.40;;;16.10;99.90;;;;;;5112931;27;20051;-63
2023/09/15 03:56:00;;;;;;;18.85;9.13;;;16.10;99.90;;;;;;5131428;27;20046;-63
2023/09/15 03:58:30;;;;;;;;;;;16.20;99.90;;;;;;5118360;27;20416;-63
2023/09/15 04:00:58;;;;;;;19.42;9.57;;;16.20;99.90;;;;;;5110299;28;19919;-62
2023/09/15 04:03:26;;;;;;;24.30;10.38;;;16.10;99.90;;;;;;5111326;28;20047;-60
2023/09/15 04:05:54;;;;;;;17.33;9.55;;;16.10;99.90;;;;;;5094613;28;20048;-63
2023/09/15 04:08:21;;;;;;;19.77;10.35;;;16.10;99.90;;;;;;5110808;28;20044;-64
2023/09/15 04:10:49;;;;;;;19.75;9.90;;;16.10;99.90;;;;;;5110313;28;20040;-62
2023/09/15 04:13:17;;;;;;;23.45;12.13;;;16.10;99.90;;;;;;5128079;27;20043;-62
2023/09/15 04:15:44;;;;;;;19.98;10.25;;;16.10;99.90;;;;;;5132450;27;20043;-63
2023/09/15 04:18:12;;;;;;;19.88;10.82;;;16.10;99.90;;;;;;5121719;27;20054;-63
2023/09/15 04:20:40;;;;;;;25.13;11.07;;;16.00;99.90;;;;;;5110343;28;20044;-63
2023/09/15 04:23:15;;;;;;;19.88;10.82;;;16.00;99.90;;;;;;5126628;27;20061;-62
2023/09/15 04:25:43;;;;;;;20.40;10.93;;;16.00;99.90;;;;;;5131023;28;20047;-63
2023/09/15 04:28:12;;;;;;;23.95;10.95;;;16.00;99.90;;;;;;5121594;28;20055;-62
2023/09/15 04:30:42;;;;;;;22.13;11.73;;;16.00;99.90;;;;;;5110980;28;20483;-63
2023/09/15 04:33:12;;;;;;;22.42;11.05;;;16.00;99.90;;;;;;5110510;28;20032;-63
2023/09/15 04:35:40;;;;;;;19.05;11.45;;;16.00;99.90;;;;;;5110250;28;20524;-63
2023/09/15 04:38:07;;;;;;;18.67;11.25;;;16.00;99.90;;;;;;5109864;28;20510;-64
2023/09/15 04:40:35;;;;;;;21.92;11.18;;;16.00;99.90;;;;;;5110459;28;20054;-63
2023/09/15 04:43:04;;;;;;;23.58;12.35;;;16.00;99.90;;;;;;5124163;28;20051;-62
2023/09/15 04:45:32;;;;;;;20.17;11.93;;;16.00;99.90;;;;;;5130974;28;20050;-63
2023/09/15 04:48:03;;;;;;;24.75;12.25;;;15.90;99.90;;;;;;5126687;28;20036;-62
2023/09/15 04:50:30;;;;;;;16.85;10.68;;;16.00;99.90;;;;;;5100250;28;20043;-62
2023/09/15 04:53:02;;;;;;;23.83;12.45;;;16.00;99.90;;;;;;5120326;28;20506;-60
2023/09/15 04:55:30;;;;;;;22.77;11.13;;;16.00;99.90;;;;;;5127694;28;20047;-64
2023/09/15 04:58:00;;;;;;;21.80;10.73;;;16.00;99.90;;;;;;5112630;28;20050;-62
2023/09/15 05:00:34;;;;;;;22.85;11.40;;;15.90;99.90;;;;;;5117818;28;20051;-63
2023/09/15 05:03:02;;;;;;;26.20;11.27;;;15.90;99.90;;;;;;5102914;28;20044;-60
2023/09/15 05:05:31;;;;;;;22.58;11.95;;;15.90;99.90;;;;;;5093399;28;20042;-63
2023/09/15 05:07:59;;;;;;;22.05;12.10;;;15.90;99.90;;;;;;5111286;28;20509;-63
2023/09/15 05:10:28;;;;;;;27.70;13.27;;;15.90;99.90;;;;;;5125768;28;20562;-62
2023/09/15 05:12:56;;;;;;;21.67;12.70;;;15.90;99.90;;;;;;5105347;27;20275;-64
2023/09/15 05:15:25;;;;;;;23.80;13.05;;;15.90;99.90;;;;;;5107342;28;20411;-62
2023/09/15 05:17:53;;;;;;;25.20;12.95;;;15.90;99.90;;;;;;5096339;27;20449;-63
2023/09/15 05:20:20;;;;;;;23.02;12.00;;;15.80;99.90;;;;;;5104056;27;20557;-62
2023/09/15 05:22:49;;;;;;;25.98;12.70;;;15.90;99.90;;;;;;5107223;27;20058;-63
2023/09/15 05:25:17;;;;;;;23.05;12.77;;;15.80;99.90;;;;;;5108523;28;20054;-63
2023/09/15 05:27:45;;;;;;;26.88;13.73;;;15.90;99.90;;;;;;5112070;27;20381;-63
2023/09/15 05:30:15;;;;;;;26.65;14.73;;;15.80;99.90;;;;;;5127927;27;20054;-62
2023/09/15 05:32:46;;;;;;;27.48;13.88;;;15.80;99.90;;;;;;5116695;27;20499;-63
2023/09/15 05:35:13;;;;;;;32.65;15.40;;;15.80;99.90;;;;;;5106269;27;20055;-62
2023/09/15 05:37:41;;;;;;;21.50;14.07;;;15.80;99.90;;;;;;5094245;28;20044;-63
2023/09/15 05:40:09;;;;;;;24.13;14.38;;;15.80;99.90;;;;;;5110942;28;20067;-62
2023/09/15 05:42:37;;;;;;;23.92;13.63;;;15.80;99.90;;;;;;5112230;27;20394;-63
2023/09/15 05:45:05;;;;;;;25.48;13.95;;;15.80;99.90;;;;;;5128211;27;20054;-61
2023/09/15 05:47:33;;;;;;;31.67;14.00;;;15.70;99.90;;;;;;5129394;27;20042;-62
2023/09/15 05:50:04;;;;;;;24.67;14.32;;;15.70;99.90;;;;;;5101122;27;20048;-62
2023/09/15 05:52:32;;;;;;;27.63;15.98;;;15.60;99.90;;;;;;5103144;27;20040;-62
2023/09/15 05:55:00;;;;;;;29.67;15.77;;;15.60;99.90;;;;;;5110748;28;20051;-63
2023/09/15 05:57:28;;;;;;;26.77;15.23;;;15.60;99.90;;;;;;5112464;27;20073;-63
2023/09/15 05:59:55;;;;;;;24.23;14.85;;;15.60;99.90;;;;;;5131310;27;20383;-63
2023/09/15 06:02:26;;;;;;;24.40;14.35;;;15.60;99.90;;;;;;5114844;27;20402;-64
2023/09/15 06:04:54;;;;;;;26.80;15.55;;;15.60;99.90;;;;;;5098802;27;20040;-63
2023/09/15 06:07:21;;;;;;;28.75;15.23;;;15.60;99.90;;;;;;5093355;27;20502;-62
2023/09/15 06:09:49;;;;;;;25.00;14.57;;;15.60;99.90;;;;;;5131451;27;20059;-63
2023/09/15 06:12:17;;;;;;;25.58;14.75;;;15.50;99.90;;;;;;5125845;27;20058;-62
2023/09/15 06:14:46;;;;;;;26.08;14.48;;;15.50;99.90;;;;;;5104588;27;20043;-62
2023/09/15 06:17:14;;;;;;;21.25;12.85;;;15.60;99.90;;;;;;5109785;27;20043;-63
2023/09/15 06:19:42;;;;;;;21.30;12.50;;;15.50;99.90;;;;;;5109761;27;20499;-63
2023/09/15 06:22:09;;;;;;;20.83;12.70;;;15.50;99.90;;;;;;5096799;27;20052;-63
2023/09/15 06:24:37;;;;;;;23.88;12.57;;;15.50;99.90;;;;;;5106311;28;20047;-63
2023/09/15 06:27:04;;;;;;;20.45;12.70;;;15.50;99.90;;;;;;5107160;28;20126;-63
2023/09/15 06:29:33;;;;;;;19.60;11.63;;;15.50;99.90;;;;;;5126728;27;20047;-63
2023/09/15 06:32:01;;;;;;;18.42;11.25;;;15.60;99.90;;;;;;5117269;27;20047;-61
2023/09/15 06:34:29;;;;;;;20.95;11.98;;;15.50;99.90;;;;;;5103481;27;20389;-62
2023/09/15 06:36:57;;;;;;;20.48;10.98;;;15.60;99.90;;;;;;5098909;27;20043;-61
2023/09/15 06:39:26;;;;;;;20.13;11.35;;;15.60;99.90;;;;;;5101433;28;20062;-63
2023/09/15 06:41:54;;;;;;;20.33;10.95;;;15.60;99.90;;;;;;5102903;27;20046;-63
2023/09/15 06:44:23;;;;;;;21.55;11.82;;;15.60;99.90;;;;;;5117533;27;20051;-61
2023/09/15 06:46:51;;;;;;;17.52;11.82;;;15.60;99.90;;;;;;5093002;27;20036;-62
2023/09/15 06:49:21;;;;;;;21.42;12.73;;;15.70;99.90;;;;;;5099612;27;20384;-61
2023/09/15 06:51:49;;;;;;;22.35;12.10;;;15.70;99.90;;;;;;5109497;27;20046;-62
2023/09/15 06:54:17;;;;;;;17.95;10.50;;;15.80;99.90;;;;;;5091873;28;20479;-63
2023/09/15 06:56:45;;;;;;;19.98;10.80;;;15.90;99.90;;;;;;5106737;28;20044;-62
2023/09/15 06:59:13;;;;;;;15.18;10.48;;;15.80;99.90;;;;;;5107784;27;20048;-64
2023/09/15 07:01:41;;;;;;;18.38;11.18;;;15.90;99.90;;;;;;5087858;28;20048;-59
2023/09/15 07:04:12;;;;;;;21.10;11.30;;;15.90;99.90;;;;;;5105133;27;20043;-63
2023/09/15 07:06:40;;;;;;;25.58;12.00;;;16.00;99.90;;;;;;5102435;28;20051;-63
2023/09/15 07:09:08;;;;;;;20.80;10.38;;;16.00;99.90;;;;;;5094062;28;20514;-63
2023/09/15 07:11:36;;;;;;;18.90;11.38;;;16.00;99.90;;;;;;5087777;28;20055;-64
2023/09/15 07:14:03;;;;;;;18.63;11.48;;;16.00;99.90;;;;;;5118677;27;20035;-61
2023/09/15 07:16:31;;;;;;;19.83;11.18;;;16.00;99.90;;;;;;5113563;27;20043;-65
2023/09/15 07:18:59;;;;;;;20.00;10.55;;;16.00;99.90;;;;;;5109283;28;20054;-64
2023/09/15 07:21:27;;;;;;;16.35;10.40;;;16.00;99.90;;;;;;5109548;27;20055;-60
2023/09/15 07:23:55;;;;;;;18.73;10.23;;;16.10;99.90;;;;;;5102757;27;20040;-62
2023/09/15 07:26:24;;;;;;;16.55;10.15;;;16.10;99.90;;;;;;5102653;28;20040;-64
2023/09/15 07:28:53;;;;;;;17.42;10.38;;;16.10;99.90;;;;;;5107431;28;20074;-63
2023/09/15 07:31:20;;;;;;;16.48;10.57;;;16.10;99.90;;;;;;5109110;28;20059;-64
2023/09/15 07:33:49;;;;;;;16.63;11.25;;;16.20;99.90;;;;;;5097986;28;20051;-62
2023/09/15 07:36:16;;;;;;;17.73;10.05;;;16.30;99.90;;;;;;5090037;28;20051;-63
2023/09/15 07:38:44;;;;;;;14.90;8.57;;;16.30;99.90;;;;;;5092494;28;20052;-62
2023/09/15 07:41:13;;;;;;;15.80;9.40;;;16.40;99.90;;;;;;5089880;28;20035;-63
2023/09/15 07:43:41;;;;;;;15.27;9.85;;;16.50;99.90;;;;;;5097763;27;20051;-62
2023/09/15 07:46:08;;;;;;;17.52;11.98;;;16.50;99.90;;;;;;5099895;28;20043;-63
2023/09/15 07:48:42;;;;;;;20.13;12.30;;;16.50;99.90;;;;;;5104617;27;20040;-63
2023/09/15 07:51:11;;;;;;;20.30;11.88;;;16.60;99.90;;;;;;5097902;28;20047;-63
2023/09/15 07:53:39;;;;;;;19.35;10.57;;;16.60;99.90;;;;;;5106192;27;20131;-64
2023/09/15 07:56:07;;;;;;;14.27;10.52;;;16.70;99.90;;;;;;5091940;28;20062;-62
2023/09/15 07:58:34;;;;;;;18.80;10.07;;;16.70;99.90;;;;;;5090664;28;20489;-64
2023/09/15 08:01:03;;;;;;;14.35;9.48;;;16.70;99.90;;;;;;5087710;28;20048;-63
2023/09/15 08:03:31;;;;;;;20.83;9.52;;;16.70;99.90;;;;;;5108554;27;20047;-64
2023/09/15 08:05:59;;;;;;;17.50;10.30;;;16.70;99.90;;;;;;5093887;28;20395;-62
2023/09/15 08:08:29;;;;;;;;;;;16.80;99.90;;;;;;5101288;27;20048;-63
2023/09/15 08:10:57;;;;;;;22.80;12.73;;;16.80;99.90;;;;;;5103039;28;20480;-64
2023/09/15 08:13:24;;;;;;;16.48;11.55;;;16.80;99.90;;;;;;5101962;27;20084;-64
2023/09/15 08:15:52;;;;;;;16.98;11.18;;;16.80;99.90;;;;;;5087938;28;20040;-63
2023/09/15 08:18:20;;;;;;;18.20;12.20;;;16.80;99.90;;;;;;5100567;28;20040;-63
2023/09/15 08:20:49;;;;;;;15.57;11.05;;;16.90;99.90;;;;;;5096623;28;20036;-61
2023/09/15 08:23:17;;;;;;;19.88;11.65;;;16.90;99.90;;;;;;5109388;28;20055;-64
2023/09/15 08:25:45;;;;;;;19.17;11.45;;;16.90;99.90;;;;;;5094435;28;20044;-64
2023/09/15 08:28:12;;;;;;;19.48;11.77;;;16.90;99.90;;;;;;5096117;28;20082;-64
2023/09/15 08:30:40;;;;;;;20.55;12.98;;;16.90;99.90;;;;;;5108639;28;20051;-63
2023/09/15 08:33:09;;;;;;;21.58;13.30;;;16.90;99.90;;;;;;5105193;28;20036;-63
2023/09/15 08:35:38;;;;;;;23.50;13.50;;;16.90;99.90;;;;;;5108270;28;20048;-63
2023/09/15 08:38:05;;;;;;;22.20;13.15;;;16.90;99.90;;;;;;5098921;28;20047;-62
2023/09/15 08:40:48;;;;;;;22.58;12.25;;;16.90;99.90;;;;;;5089028;28;20048;-64
2023/09/15 08:43:16;;;;;;;20.30;13.32;;;16.90;99.90;;;;;;5105379;28;20055;-64
2023/09/15 08:45:47;;;;;;;24.75;13.63;;;16.90;99.90;;;;;;5087967;28;20044;-63
2023/09/15 08:48:23;;;;;;;24.60;15.15;;;16.90;99.90;;;;;;5103104;28;20391;-64
2023/09/15 08:50:52;;;;;;;20.70;13.55;;;16.90;99.90;;;;;;5102048;27;20047;-64
2023/09/15 08:53:21;;;;;;;20.27;13.43;;;16.90;99.90;;;;;;5110991;27;20044;-64
2023/09/15 08:55:48;;;;;;;20.77;12.50;;;16.80;99.90;;;;;;5103953;27;20040;-62
2023/09/15 08:58:17;;;;;;;21.45;13.63;;;16.80;99.90;;;;;;5094786;27;20052;-64
2023/09/15 09:00:46;;;;;;;21.90;14.27;;;16.70;99.90;;;;;;5099700;28;20035;-63
2023/09/15 09:03:14;;;;;;;21.65;13.85;;;16.80;99.90;;;;;;5102656;27;20039;-63
2023/09/15 09:05:47;;;;;;;18.50;13.20;;;16.70;99.90;;;;;;5107159;28;20414;-63
2023/09/15 09:08:18;;;;;;;23.10;14.80;;;16.70;99.90;;;;;;5098552;27;20094;-63
2023/09/15 09:10:47;;;;;;;22.20;14.80;;;16.70;99.90;;;;;;5092478;27;20051;-64
2023/09/15 09:13:15;;;;;;;28.07;15.77;;;16.70;99.90;;;;;;5096837;28;20468;-63
2023/09/15 09:15:51;;;;;;;26.00;15.23;;;16.70;99.90;;;;;;5105458;27;20051;-63
2023/09/15 09:18:19;;;;;;;25.00;16.23;;;16.70;99.90;;;;;;5106179;28;20043;-63
2023/09/15 09:20:49;;;;;;;29.88;15.55;;;16.70;99.90;;;;;;5092609;28;20295;-64
2023/09/15 09:23:19;;;;;;;23.70;16.08;;;16.70;99.90;;;;;;5111463;27;20515;-64
2023/09/15 09:25:48;;;;;;;28.85;17.35;;;16.70;99.90;;;;;;5106683;27;20056;-63
2023/09/15 09:28:16;;;;;;;29.45;16.40;;;16.60;99.90;;;;;;5100657;28;20490;-64
2023/09/15 09:30:45;;;;;;;26.05;15.85;;;16.60;99.90;;;;;;5095031;28;20071;-64
2023/09/15 09:33:14;;;;;;;26.10;15.15;;;16.60;99.90;;;;;;5114851;27;20050;-64
2023/09/15 09:35:42;;;;;;;22.58;14.60;;;16.60;99.90;;;;;;5089839;27;20479;-64
2023/09/15 09:38:13;;;;;;;23.33;15.07;;;16.60;99.90;;;;;;5087753;27;20054;-63
2023/09/15 09:40:41;;;;;;;22.70;13.70;;;16.60;99.90;;;;;;5095285;28;20083;-64
2023/09/15 09:43:12;;;;;;;23.38;14.80;;;16.50;99.90;;;;;;5103268;27;20043;-62
2023/09/15 09:45:40;;;;;;;20.77;13.25;;;16.40;99.90;;;;;;5089072;28;20047;-63
2023/09/15 09:48:07;;;;;;;19.65;12.88;;;16.40;99.90;;;;;;5099079;27;20046;-65
2023/09/15 09:50:36;;;;;;;20.75;12.77;;;16.40;99.90;;;;;;5096311;28;20055;-63
2023/09/15 09:53:08;;;;;;;20.67;12.70;;;16.40;99.90;;;;;;5094620;27;20062;-64
2023/09/15 09:55:36;;;;;;;24.55;14.70;;;16.50;99.90;;;;;;5093225;27;20048;-63
2023/09/15 09:58:05;;;;;;;24.02;14.73;;;16.60;99.90;;;;;;5090194;27;20059;-63
2023/09/15 10:00:34;;;;;;;24.55;15.40;;;16.60;99.90;;;;;;5091035;27;20054;-61
2023/09/15 10:03:02;;;;;;;22.90;13.38;;;16.60;99.90;;;;;;5078979;27;20059;-62
2023/09/15 10:05:31;;;;;;;22.10;14.65;;;16.60;99.90;;;;;;5106023;28;20548;-62
2023/09/15 10:07:59;;;;;;;20.73;13.57;;;16.60;99.90;;;;;;5103759;28;20043;-63
2023/09/15 10:10:27;;;;;;;27.02;15.40;;;16.50;99.90;;;;;;5087878;28;20052;-63
2023/09/15 10:12:56;;;;;;;24.02;15.95;;;16.50;99.90;;;;;;5100860;27;20482;-64
2023/09/15 10:15:24;;;;;;;24.60;15.73;;;16.50;99.90;;;;;;5101354;27;20039;-62
2023/09/15 10:17:53;;;;;;;27.55;14.93;;;16.50;99.90;;;;;;5101810;28;20058;-62
2023/09/15 10:20:22;;;;;;;24.05;14.32;;;16.50;99.90;;;;;;5092665;28;20130;-63
2023/09/15 10:22:50;;;;;;;26.13;15.10;;;16.50;99.90;;;;;;5097495;27;20048;-63
2023/09/15 10:25:18;;;;;;;21.48;14.60;;;16.50;99.90;;;;;;5094814;27;20058;-63
2023/09/15 10:27:46;;;;;;;29.52;15.52;;;16.50;99.90;;;;;;5091197;27;20511;-62
2023/09/15 10:30:14;;;;;;;23.42;15.13;;;16.50;99.90;;;;;;5089294;28;20047;-63
2023/09/15 10:32:43;;;;;;;24.38;14.60;;;16.50;99.90;;;;;;5105409;27;20047;-63
2023/09/15 10:35:12;;;;;;;23.77;14.13;;;16.40;99.90;;;;;;5086451;28;20055;-61
2023/09/15 10:37:43;;;;;;;18.73;13.43;;;16.40;99.90;;;;;;5091804;27;20052;-63
2023/09/15 10:40:12;;;;;;;20.20;11.55;;;16.40;99.90;;;;;;5095989;28;20059;-61
2023/09/15 10:42:50;;;;;;;19.02;11.73;;;16.50;99.90;;;;;;5090895;27;20035;-63
2023/09/15 10:45:18;;;;;;;14.43;10.07;;;16.60;99.90;;;;;;5090169;27;20040;-63
2023/09/15 10:47:58;;;;;;;17.98;10.88;;;16.70;99.90;;;;;;5091802;27;20050;-62
2023/09/15 10:50:31;;;;;;;16.85;11.93;;;16.80;99.90;;;;;;5085051;28;20315;-63
2023/09/15 10:53:21;;;;;;;17.60;11.13;;;16.80;99.90;;;;;;5104125;27;20399;-63
2023/09/15 10:55:55;;;;;;;16.67;11.18;;;16.80;99.90;;;;;;5105751;28;20419;-63
2023/09/15 10:58:27;;;;;;;18.40;11.90;;;16.90;99.90;;;;;;5096805;28;20410;-63
2023/09/15 11:00:54;;;;;;;;;;;17.00;99.90;;;;;;5088060;27;20055;-63
2023/09/15 11:03:24;;;;;;;16.15;10.85;;;17.10;99.90;;;;;;5091190;27;20832;-63
2023/09/15 11:05:58;;;;;;;15.05;10.30;;;17.30;99.90;;;;;;5104385;28;20054;-64
2023/09/15 11:08:29;;;;;;;17.73;9.95;;;17.40;99.90;;;;;;5090606;28;20036;-64
2023/09/15 11:10:59;;;;;;;16.77;10.40;;;17.60;99.90;;;;;;5085174;28;20055;-63
2023/09/15 11:13:26;;;;;;;16.15;10.40;;;17.80;99.90;;;;;;5102581;28;20475;-64
2023/09/15 11:15:54;;;;;;;13.77;8.52;;;18.00;99.90;;;;;;5101228;27;20062;-63
2023/09/15 11:18:22;;;;;;;12.43;8.57;;;18.20;99.90;;;;;;5097982;27;20044;-64
2023/09/15 11:20:50;;;;;;;11.52;9.07;;;18.30;99.90;;;;;;5109438;28;20055;-64
2023/09/15 11:23:18;;;;;;;12.23;7.32;;;18.50;99.90;;;;;;5106821;27;20052;-63
2023/09/15 11:25:46;;;;;;;9.27;7.30;;;18.70;99.90;;;;;;5104792;28;20060;-65
2023/09/15 11:28:14;;;;;;;13.00;6.55;;;18.90;99.90;;;;;;5106019;28;20062;-64
2023/09/15 11:30:45;;;;;;;9.48;6.63;;;19.00;99.90;;;;;;5101786;28;20036;-63
2023/09/15 11:33:14;;;;;;;9.10;6.38;;;19.30;99.90;;;;;;5099612;27;20059;-64
2023/09/15 11:35:42;;;;;;;8.52;6.65;;;19.50;99.90;;;;;;5108332;28;20590;-60
2023/09/15 11:38:10;;;;;;;11.45;6.80;;;19.80;99.90;;;;;;5098502;28;20039;-63
2023/09/15 11:40:44;;;;;;;13.77;6.75;;;20.10;99.90;;;;;;5109135;28;20121;-62
2023/09/15 11:43:12;;;;;;;9.73;5.97;;;20.40;99.90;;;;;;5097408;28;20046;-63
2023/09/15 11:45:41;;;;;;;8.55;6.60;;;20.80;99.90;;;;;;5090960;27;20502;-64
2023/09/15 11:48:11;;;;;;;8.25;6.50;;;21.10;99.90;;;;;;5104312;28;20056;-63
2023/09/15 11:50:40;;;;;;;8.75;6.18;;;21.30;99.90;;;;;;5094575;28;20032;-63
2023/09/15 11:53:08;;;;;;;8.07;6.33;;;21.50;99.90;;;;;;5082482;28;20467;-63
2023/09/15 11:55:36;;;;;;;10.38;6.68;;;21.80;99.90;;;;;;5088487;28;20784;-63
2023/09/15 11:58:04;;;;;;;8.40;5.88;;;21.90;99.90;;;;;;5093559;27;20648;-63
2023/09/15 12:00:33;;;;;;;9.95;5.88;;;22.30;99.90;;;;;;5089320;28;20048;-61
2023/09/15 12:03:03;;;;;;;11.43;6.30;;;22.50;99.90;;;;;;5097322;27;20538;-61
2023/09/15 12:05:31;;;;;;;;;;;22.70;99.90;;;;;;5101508;28;20046;-63
2023/09/15 12:07:59;;;;;;;7.95;5.78;;;22.90;99.90;;;;;;5091218;28;19926;-63
2023/09/15 12:10:27;;;;;;;8.10;5.88;;;23.00;99.90;;;;;;5097964;28;20513;-64
2023/09/15 12:12:59;;;;;;;12.55;6.60;;;22.90;99.90;;;;;;5096991;27;20075;-63
2023/09/15 12:15:27;;;;;;;7.95;6.35;;;22.90;99.90;;;;;;5099883;27;20395;-63
2023/09/15 12:17:56;;;;;;;7.55;5.22;;;23.00;99.90;;;;;;5101605;27;20043;-64
2023/09/15 12:20:24;;;;;;;10.05;6.07;;;23.00;99.90;;;;;;5102190;28;20052;-63
2023/09/15 12:22:55;;;;;;;8.95;6.53;;;23.20;99.90;;;;;;5097099;28;20047;-64
2023/09/15 12:25:23;;;;;;;9.85;6.53;;;23.40;99.90;;;;;;5095690;28;20606;-64
2023/09/15 12:27:52;;;;;;;8.15;6.30;;;23.60;99.90;;;;;;5107338;28;20048;-63
2023/09/15 12:30:20;;;;;;;8.23;5.18;;;23.30;99.90;;;;;;5103308;28;20051;-62
2023/09/15 12:32:48;;;;;;;10.88;6.07;;;23.60;99.90;;;;;;5094416;28;20588;-60
2023/09/15 12:35:16;;;;;;;9.15;5.68;;;23.80;99.90;;;;;;5095679;28;20048;-63
2023/09/15 12:37:45;;;;;;;10.88;5.28;;;23.80;99.90;;;;;;5108785;28;20054;-64
2023/09/15 12:40:14;;;;;;;9.20;5.97;;;23.70;99.90;;;;;;5092128;28;20502;-64
2023/09/15 12:42:43;;;;;;;9.63;5.53;;;23.70;99.90;;;;;;5100426;28;20047;-63
2023/09/15 12:45:14;;;;;;;8.73;5.22;;;23.60;99.90;;;;;;5086520;28;20036;-65